Flaxcombe, Canada
Current Conditions -  °F | °C
As of 7:00 PM on Friday 24 Oct 2014 (Local Time) from CYKY Reporting Station
Few Clouds Few Clouds  
Wind Chill: 33°   Ceiling: Unl
Heat Index: 39°   Visibility: 15mi
Dew Point: 27°   Wind: 9mph
Humidity: 61%   Direction: 270°W
Pressure: 29.95"   Gusts: NA
Location:  51.47°N, 109.6°W
Report Text: CYKY 250100Z 27008KT 15SM FEW060 04/M03 A2995 RMK SC1 SC TR SLP167
Loading
Personal Weather Stations






























Interactive Weather Map
Tropical Storm Tracking
New forecast layout! Learn more

10-Day Weather Forecast

Advertisements
Track Severe Weather on mobile